sensor_id;sensor_type;location;lat;lon;timestamp;temperature;humidity
6843;DHT22;3460;52.028;8.916;2023-08-24T00:01:48;15.70;99.90
6843;DHT22;3460;52.028;8.916;2023-08-24T00:04:15;15.80;99.90
6843;DHT22;3460;52.028;8.916;2023-08-24T00:06:41;15.70;99.90
6843;DHT22;3460;52.028;8.916;2023-08-24T00:09:08;15.70;99.90
6843;DHT22;3460;52.028;8.916;2023-08-24T00:11:35;15.60;99.90
6843;DHT22;3460;52.028;8.916;2023-08-24T00:14:02;15.60;99.90
6843;DHT22;3460;52.028;8.916;2023-08-24T00:16:30;15.60;99.90
6843;DHT22;3460;52.028;8.916;2023-08-24T00:18:58;15.60;99.90
6843;DHT22;3460;52.028;8.916;2023-08-24T00:21:24;15.60;99.90
6843;DHT22;3460;52.028;8.916;2023-08-24T00:23:51;15.60;99.90
6843;DHT22;3460;52.028;8.916;2023-08-24T00:26:19;15.60;99.90
6843;DHT22;3460;52.028;8.916;2023-08-24T00:28:45;15.70;99.90
6843;DHT22;3460;52.028;8.916;2023-08-24T00:31:13;15.60;99.90
6843;DHT22;3460;52.028;8.916;2023-08-24T00:33:43;15.60;99.90
6843;DHT22;3460;52.028;8.916;2023-08-24T00:36:09;15.60;99.90
6843;DHT22;3460;52.028;8.916;2023-08-24T00:38:36;15.60;99.90
6843;DHT22;3460;52.028;8.916;2023-08-24T00:41:03;15.50;99.90
6843;DHT22;3460;52.028;8.916;2023-08-24T00:43:30;15.60;99.90
6843;DHT22;3460;52.028;8.916;2023-08-24T00:45:59;15.50;99.90
6843;DHT22;3460;52.028;8.916;2023-08-24T00:48:27;15.50;99.90
6843;DHT22;3460;52.028;8.916;2023-08-24T00:50:57;15.50;99.90
6843;DHT22;3460;52.028;8.916;2023-08-24T00:53:27;15.40;99.90
6843;DHT22;3460;52.028;8.916;2023-08-24T00:55:54;15.40;99.90
6843;DHT22;3460;52.028;8.916;2023-08-24T00:58:21;15.40;99.90
6843;DHT22;3460;52.028;8.916;2023-08-24T01:00:49;15.30;99.90
6843;DHT22;3460;52.028;8.916;2023-08-24T01:03:17;15.30;99.90
6843;DHT22;3460;52.028;8.916;2023-08-24T01:05:44;15.30;99.90
6843;DHT22;3460;52.028;8.916;2023-08-24T01:08:13;15.20;99.90
6843;DHT22;3460;52.028;8.916;2023-08-24T01:10:45;15.20;99.90
6843;DHT22;3460;52.028;8.916;2023-08-24T01:13:21;15.20;99.90
6843;DHT22;3460;52.028;8.916;2023-08-24T01:15:55;15.20;99.90
6843;DHT22;3460;52.028;8.916;2023-08-24T01:18:25;15.20;99.90
6843;DHT22;3460;52.028;8.916;2023-08-24T01:20:53;15.20;99.90
6843;DHT22;3460;52.028;8.916;2023-08-24T01:23:36;15.10;99.90
6843;DHT22;3460;52.028;8.916;2023-08-24T01:26:16;15.10;99.90
6843;DHT22;3460;52.028;8.916;2023-08-24T01:28:45;15.10;99.90
6843;DHT22;3460;52.028;8.916;2023-08-24T01:31:13;15.00;99.90
6843;DHT22;3460;52.028;8.916;2023-08-24T01:33:41;15.00;99.90
6843;DHT22;3460;52.028;8.916;2023-08-24T01:36:08;15.00;99.90
6843;DHT22;3460;52.028;8.916;2023-08-24T01:38:36;14.90;99.90
6843;DHT22;3460;52.028;8.916;2023-08-24T01:41:10;14.90;99.90
6843;DHT22;3460;52.028;8.916;2023-08-24T01:43:43;14.80;99.90
6843;DHT22;3460;52.028;8.916;2023-08-24T01:46:14;14.90;99.90
6843;DHT22;3460;52.028;8.916;2023-08-24T01:48:42;14.80;99.90
6843;DHT22;3460;52.028;8.916;2023-08-24T01:51:10;14.90;99.90
6843;DHT22;3460;52.028;8.916;2023-08-24T01:53:37;14.80;99.90
6843;DHT22;3460;52.028;8.916;2023-08-24T01:56:08;14.90;99.90
6843;DHT22;3460;52.028;8.916;2023-08-24T01:58:35;14.80;99.90
6843;DHT22;3460;52.028;8.916;2023-08-24T02:01:04;14.90;99.90
6843;DHT22;3460;52.028;8.916;2023-08-24T02:03:31;14.90;99.90
6843;DHT22;3460;52.028;8.916;2023-08-24T02:05:58;14.90;99.90
6843;DHT22;3460;52.028;8.916;2023-08-24T02:08:25;14.90;99.90
6843;DHT22;3460;52.028;8.916;2023-08-24T02:10:51;14.90;99.90
6843;DHT22;3460;52.028;8.916;2023-08-24T02:13:18;14.90;99.90
6843;DHT22;3460;52.028;8.916;2023-08-24T02:15:45;14.90;99.90
6843;DHT22;3460;52.028;8.916;2023-08-24T02:18:13;14.90;99.90
6843;DHT22;3460;52.028;8.916;2023-08-24T02:20:40;14.90;99.90
6843;DHT22;3460;52.028;8.916;2023-08-24T02:23:07;14.90;99.90
6843;DHT22;3460;52.028;8.916;2023-08-24T02:25:34;14.80;99.90
6843;DHT22;3460;52.028;8.916;2023-08-24T02:28:01;14.80;99.90
6843;DHT22;3460;52.028;8.916;2023-08-24T02:30:28;14.80;99.90
6843;DHT22;3460;52.028;8.916;2023-08-24T02:32:54;14.70;99.90
6843;DHT22;3460;52.028;8.916;2023-08-24T02:35:23;14.70;99.90
6843;DHT22;3460;52.028;8.916;2023-08-24T02:37:49;14.70;99.90
6843;DHT22;3460;52.028;8.916;2023-08-24T02:40:17;14.70;99.90
6843;DHT22;3460;52.028;8.916;2023-08-24T02:42:43;14.70;99.90
6843;DHT22;3460;52.028;8.916;2023-08-24T02:45:10;14.70;99.90
6843;DHT22;3460;52.028;8.916;2023-08-24T02:47:37;14.70;99.90
6843;DHT22;3460;52.028;8.916;2023-08-24T02:50:05;14.60;99.90
6843;DHT22;3460;52.028;8.916;2023-08-24T02:52:34;14.60;99.90
6843;DHT22;3460;52.028;8.916;2023-08-24T02:55:01;14.60;99.90
6843;DHT22;3460;52.028;8.916;2023-08-24T02:57:29;14.60;99.90
6843;DHT22;3460;52.028;8.916;2023-08-24T02:59:56;14.60;99.90
6843;DHT22;3460;52.028;8.916;2023-08-24T03:02:22;14.50;99.90
6843;DHT22;3460;52.028;8.916;2023-08-24T03:04:49;14.50;99.90
6843;DHT22;3460;52.028;8.916;2023-08-24T03:07:16;14.50;99.90
6843;DHT22;3460;52.028;8.916;2023-08-24T03:09:44;14.50;99.90
6843;DHT22;3460;52.028;8.916;2023-08-24T03:12:11;14.40;99.90
6843;DHT22;3460;52.028;8.916;2023-08-24T03:14:39;14.40;99.90
6843;DHT22;3460;52.028;8.916;2023-08-24T03:17:05;14.40;99.90
6843;DHT22;3460;52.028;8.916;2023-08-24T03:19:33;14.40;99.90
6843;DHT22;3460;52.028;8.916;2023-08-24T03:21:59;14.40;99.90
6843;DHT22;3460;52.028;8.916;2023-08-24T03:24:26;14.40;99.90
6843;DHT22;3460;52.028;8.916;2023-08-24T03:26:54;14.40;99.90
6843;DHT22;3460;52.028;8.916;2023-08-24T03:29:21;14.40;99.90
6843;DHT22;3460;52.028;8.916;2023-08-24T03:31:48;14.40;99.90
6843;DHT22;3460;52.028;8.916;2023-08-24T03:34:15;14.40;99.90
6843;DHT22;3460;52.028;8.916;2023-08-24T03:36:42;14.40;99.90
6843;DHT22;3460;52.028;8.916;2023-08-24T03:39:08;14.40;99.90
6843;DHT22;3460;52.028;8.916;2023-08-24T03:41:37;14.40;99.90
6843;DHT22;3460;52.028;8.916;2023-08-24T03:44:05;14.40;99.90
6843;DHT22;3460;52.028;8.916;2023-08-24T03:46:32;14.40;99.90
6843;DHT22;3460;52.028;8.916;2023-08-24T03:48:59;14.40;99.90
6843;DHT22;3460;52.028;8.916;2023-08-24T03:51:26;14.30;99.90
6843;DHT22;3460;52.028;8.916;2023-08-24T03:53:53;14.30;99.90
6843;DHT22;3460;52.028;8.916;2023-08-24T03:56:20;14.30;99.90
6843;DHT22;3460;52.028;8.916;2023-08-24T03:58:47;14.30;99.90
6843;DHT22;3460;52.028;8.916;2023-08-24T04:01:16;14.30;99.90
6843;DHT22;3460;52.028;8.916;2023-08-24T04:03:42;14.30;99.90
6843;DHT22;3460;52.028;8.916;2023-08-24T04:06:09;14.30;99.90
6843;DHT22;3460;52.028;8.916;2023-08-24T04:08:36;14.30;99.90
6843;DHT22;3460;52.028;8.916;2023-08-24T04:11:03;14.30;99.90
6843;DHT22;3460;52.028;8.916;2023-08-24T04:13:29;14.30;99.90
6843;DHT22;3460;52.028;8.916;2023-08-24T04:15:57;14.40;99.90
6843;DHT22;3460;52.028;8.916;2023-08-24T04:18:25;14.40;99.90
6843;DHT22;3460;52.028;8.916;2023-08-24T04:20:52;14.40;99.90
6843;DHT22;3460;52.028;8.916;2023-08-24T04:23:24;14.40;99.90
6843;DHT22;3460;52.028;8.916;2023-08-24T04:25:51;14.40;99.90
6843;DHT22;3460;52.028;8.916;2023-08-24T04:28:19;14.40;99.90
6843;DHT22;3460;52.028;8.916;2023-08-24T04:30:52;14.30;99.90
6843;DHT22;3460;52.028;8.916;2023-08-24T04:33:19;14.20;99.90
6843;DHT22;3460;52.028;8.916;2023-08-24T04:35:48;14.20;99.90
6843;DHT22;3460;52.028;8.916;2023-08-24T04:38:15;14.20;99.90
6843;DHT22;3460;52.028;8.916;2023-08-24T04:40:49;14.20;99.90
6843;DHT22;3460;52.028;8.916;2023-08-24T04:43:17;14.30;99.90
6843;DHT22;3460;52.028;8.916;2023-08-24T04:45:46;14.30;99.90
6843;DHT22;3460;52.028;8.916;2023-08-24T04:48:13;14.40;99.90
6843;DHT22;3460;52.028;8.916;2023-08-24T04:50:42;14.50;99.90
6843;DHT22;3460;52.028;8.916;2023-08-24T04:53:11;14.50;99.90
6843;DHT22;3460;52.028;8.916;2023-08-24T04:55:38;14.60;99.90
6843;DHT22;3460;52.028;8.916;2023-08-24T04:58:05;14.70;99.90
6843;DHT22;3460;52.028;8.916;2023-08-24T05:00:32;14.80;99.90
6843;DHT22;3460;52.028;8.916;2023-08-24T05:03:00;14.80;99.90
6843;DHT22;3460;52.028;8.916;2023-08-24T05:05:28;14.90;99.90
6843;DHT22;3460;52.028;8.916;2023-08-24T05:07:55;15.00;99.90
6843;DHT22;3460;52.028;8.916;2023-08-24T05:10:23;15.00;99.90
6843;DHT22;3460;52.028;8.916;2023-08-24T05:12:50;15.10;99.90
6843;DHT22;3460;52.028;8.916;2023-08-24T05:15:17;15.10;99.90
6843;DHT22;3460;52.028;8.916;2023-08-24T05:17:44;15.10;99.90
6843;DHT22;3460;52.028;8.916;2023-08-24T05:20:11;15.20;99.90
6843;DHT22;3460;52.028;8.916;2023-08-24T05:22:38;15.20;99.90
6843;DHT22;3460;52.028;8.916;2023-08-24T05:25:05;15.20;99.90
6843;DHT22;3460;52.028;8.916;2023-08-24T05:27:34;15.20;99.90
6843;DHT22;3460;52.028;8.916;2023-08-24T05:30:01;15.20;99.90
6843;DHT22;3460;52.028;8.916;2023-08-24T05:32:27;15.30;99.90
6843;DHT22;3460;52.028;8.916;2023-08-24T05:34:54;15.30;99.90
6843;DHT22;3460;52.028;8.916;2023-08-24T05:37:21;15.30;99.90
6843;DHT22;3460;52.028;8.916;2023-08-24T05:39:48;15.40;99.90
6843;DHT22;3460;52.028;8.916;2023-08-24T05:42:14;15.30;99.90
6843;DHT22;3460;52.028;8.916;2023-08-24T05:44:43;15.30;99.90
6843;DHT22;3460;52.028;8.916;2023-08-24T05:47:09;15.30;99.90
6843;DHT22;3460;52.028;8.916;2023-08-24T05:49:36;15.30;99.90
6843;DHT22;3460;52.028;8.916;2023-08-24T05:52:03;15.30;99.90
6843;DHT22;3460;52.028;8.916;2023-08-24T05:54:30;15.40;99.90
6843;DHT22;3460;52.028;8.916;2023-08-24T05:56:58;15.40;99.90
6843;DHT22;3460;52.028;8.916;2023-08-24T05:59:26;15.40;99.90
6843;DHT22;3460;52.028;8.916;2023-08-24T06:01:54;15.50;99.90
6843;DHT22;3460;52.028;8.916;2023-08-24T06:04:21;15.40;99.90
6843;DHT22;3460;52.028;8.916;2023-08-24T06:06:48;15.40;99.90
6843;DHT22;3460;52.028;8.916;2023-08-24T06:09:14;15.40;99.90
6843;DHT22;3460;52.028;8.916;2023-08-24T06:11:41;15.40;99.90
6843;DHT22;3460;52.028;8.916;2023-08-24T06:14:08;15.40;99.90
6843;DHT22;3460;52.028;8.916;2023-08-24T06:16:35;15.40;99.90
6843;DHT22;3460;52.028;8.916;2023-08-24T06:19:03;15.50;99.90
6843;DHT22;3460;52.028;8.916;2023-08-24T06:21:30;15.50;99.90
6843;DHT22;3460;52.028;8.916;2023-08-24T06:23:57;15.60;99.90
6843;DHT22;3460;52.028;8.916;2023-08-24T06:26:24;15.60;99.90
6843;DHT22;3460;52.028;8.916;2023-08-24T06:28:51;15.70;99.90
6843;DHT22;3460;52.028;8.916;2023-08-24T06:31:17;15.80;99.90
6843;DHT22;3460;52.028;8.916;2023-08-24T06:33:44;15.90;99.90
6843;DHT22;3460;52.028;8.916;2023-08-24T06:36:12;16.00;99.90
6843;DHT22;3460;52.028;8.916;2023-08-24T06:38:39;16.10;99.90
6843;DHT22;3460;52.028;8.916;2023-08-24T06:41:06;16.20;99.90
6843;DHT22;3460;52.028;8.916;2023-08-24T06:43:36;16.30;99.90
6843;DHT22;3460;52.028;8.916;2023-08-24T06:46:04;16.40;99.90
6843;DHT22;3460;52.028;8.916;2023-08-24T06:48:33;16.40;99.90
6843;DHT22;3460;52.028;8.916;2023-08-24T06:51:00;16.50;99.90
6843;DHT22;3460;52.028;8.916;2023-08-24T06:53:28;16.60;99.90
6843;DHT22;3460;52.028;8.916;2023-08-24T06:55:55;16.60;99.90
6843;DHT22;3460;52.028;8.916;2023-08-24T06:58:22;16.70;99.90
6843;DHT22;3460;52.028;8.916;2023-08-24T07:00:49;16.80;99.90
6843;DHT22;3460;52.028;8.916;2023-08-24T07:03:17;16.90;99.90
6843;DHT22;3460;52.028;8.916;2023-08-24T07:05:44;17.00;99.90
6843;DHT22;3460;52.028;8.916;2023-08-24T07:08:11;17.10;99.90
6843;DHT22;3460;52.028;8.916;2023-08-24T07:10:39;17.20;99.90
6843;DHT22;3460;52.028;8.916;2023-08-24T07:13:07;17.30;99.90
6843;DHT22;3460;52.028;8.916;2023-08-24T07:15:34;17.40;99.90
6843;DHT22;3460;52.028;8.916;2023-08-24T07:18:02;17.50;99.90
6843;DHT22;3460;52.028;8.916;2023-08-24T07:20:31;17.60;99.90
6843;DHT22;3460;52.028;8.916;2023-08-24T07:22:58;17.80;99.90
6843;DHT22;3460;52.028;8.916;2023-08-24T07:25:25;17.80;99.90
6843;DHT22;3460;52.028;8.916;2023-08-24T07:27:54;17.90;99.90
6843;DHT22;3460;52.028;8.916;2023-08-24T07:30:23;17.90;99.90
6843;DHT22;3460;52.028;8.916;2023-08-24T07:32:50;18.00;99.90
6843;DHT22;3460;52.028;8.916;2023-08-24T07:35:17;18.00;99.90
6843;DHT22;3460;52.028;8.916;2023-08-24T07:37:46;18.00;99.90
6843;DHT22;3460;52.028;8.916;2023-08-24T07:40:13;18.00;99.90
6843;DHT22;3460;52.028;8.916;2023-08-24T07:42:44;18.10;99.90
6843;DHT22;3460;52.028;8.916;2023-08-24T07:45:12;18.30;99.90
6843;DHT22;3460;52.028;8.916;2023-08-24T07:47:40;18.60;99.90
6843;DHT22;3460;52.028;8.916;2023-08-24T07:50:08;19.00;99.90
6843;DHT22;3460;52.028;8.916;2023-08-24T07:52:36;19.10;99.90
6843;DHT22;3460;52.028;8.916;2023-08-24T07:55:03;19.40;99.90
6843;DHT22;3460;52.028;8.916;2023-08-24T07:57:31;19.50;99.90
6843;DHT22;3460;52.028;8.916;2023-08-24T07:59:58;19.70;99.90
6843;DHT22;3460;52.028;8.916;2023-08-24T08:02:26;20.00;99.90
6843;DHT22;3460;52.028;8.916;2023-08-24T08:04:56;20.10;99.90
6843;DHT22;3460;52.028;8.916;2023-08-24T08:07:24;20.20;99.90
6843;DHT22;3460;52.028;8.916;2023-08-24T08:09:51;20.30;99.90
6843;DHT22;3460;52.028;8.916;2023-08-24T08:12:18;20.40;99.90
6843;DHT22;3460;52.028;8.916;2023-08-24T08:14:45;20.60;99.90
6843;DHT22;3460;52.028;8.916;2023-08-24T08:17:12;20.80;99.90
6843;DHT22;3460;52.028;8.916;2023-08-24T08:19:40;20.80;99.90
6843;DHT22;3460;52.028;8.916;2023-08-24T08:22:07;20.70;99.90
6843;DHT22;3460;52.028;8.916;2023-08-24T08:24:34;20.80;99.90
6843;DHT22;3460;52.028;8.916;2023-08-24T08:27:01;20.80;99.90
6843;DHT22;3460;52.028;8.916;2023-08-24T08:29:28;20.80;99.90
6843;DHT22;3460;52.028;8.916;2023-08-24T08:31:55;20.80;99.90
6843;DHT22;3460;52.028;8.916;2023-08-24T08:34:22;20.80;99.90
6843;DHT22;3460;52.028;8.916;2023-08-24T08:36:50;21.00;99.90
6843;DHT22;3460;52.028;8.916;2023-08-24T08:39:17;21.10;99.90
6843;DHT22;3460;52.028;8.916;2023-08-24T08:41:46;21.30;99.90
6843;DHT22;3460;52.028;8.916;2023-08-24T08:44:13;21.40;99.90
6843;DHT22;3460;52.028;8.916;2023-08-24T08:46:42;21.50;99.90
6843;DHT22;3460;52.028;8.916;2023-08-24T08:49:09;21.40;99.90
6843;DHT22;3460;52.028;8.916;2023-08-24T08:51:36;21.60;99.90
6843;DHT22;3460;52.028;8.916;2023-08-24T08:54:05;21.80;99.90
6843;DHT22;3460;52.028;8.916;2023-08-24T08:56:32;22.00;99.90
6843;DHT22;3460;52.028;8.916;2023-08-24T08:59:00;22.10;99.90
6843;DHT22;3460;52.028;8.916;2023-08-24T09:01:27;22.20;99.90
6843;DHT22;3460;52.028;8.916;2023-08-24T09:03:54;22.30;99.90
6843;DHT22;3460;52.028;8.916;2023-08-24T09:06:23;22.20;99.90
6843;DHT22;3460;52.028;8.916;2023-08-24T09:08:51;22.20;99.90
6843;DHT22;3460;52.028;8.916;2023-08-24T09:11:20;22.10;99.90
6843;DHT22;3460;52.028;8.916;2023-08-24T09:13:49;22.30;99.90
6843;DHT22;3460;52.028;8.916;2023-08-24T09:16:16;22.50;99.90
6843;DHT22;3460;52.028;8.916;2023-08-24T09:18:47;22.80;99.90
6843;DHT22;3460;52.028;8.916;2023-08-24T09:21:15;23.00;99.90
6843;DHT22;3460;52.028;8.916;2023-08-24T09:23:43;23.10;99.90
6843;DHT22;3460;52.028;8.916;2023-08-24T09:26:11;23.20;99.90
6843;DHT22;3460;52.028;8.916;2023-08-24T09:28:42;23.20;99.90
6843;DHT22;3460;52.028;8.916;2023-08-24T09:31:12;23.30;99.90
6843;DHT22;3460;52.028;8.916;2023-08-24T09:33:39;23.20;99.90
6843;DHT22;3460;52.028;8.916;2023-08-24T09:36:10;23.40;99.90
6843;DHT22;3460;52.028;8.916;2023-08-24T09:38:46;23.50;99.90
6843;DHT22;3460;52.028;8.916;2023-08-24T09:41:14;23.40;99.90
6843;DHT22;3460;52.028;8.916;2023-08-24T09:43:42;23.30;99.90
6843;DHT22;3460;52.028;8.916;2023-08-24T09:46:09;23.40;99.90
6843;DHT22;3460;52.028;8.916;2023-08-24T09:48:35;23.50;99.90
6843;DHT22;3460;52.028;8.916;2023-08-24T09:51:04;23.60;99.90
6843;DHT22;3460;52.028;8.916;2023-08-24T09:53:33;23.60;99.90
6843;DHT22;3460;52.028;8.916;2023-08-24T09:56:04;23.80;99.90
6843;DHT22;3460;52.028;8.916;2023-08-24T09:58:33;23.90;99.90
6843;DHT22;3460;52.028;8.916;2023-08-24T10:01:02;24.10;99.90
6843;DHT22;3460;52.028;8.916;2023-08-24T10:03:32;24.00;99.90
6843;DHT22;3460;52.028;8.916;2023-08-24T10:05:59;24.10;99.90
6843;DHT22;3460;52.028;8.916;2023-08-24T10:08:28;24.20;99.90
6843;DHT22;3460;52.028;8.916;2023-08-24T10:10:56;24.40;99.90
6843;DHT22;3460;52.028;8.916;2023-08-24T10:13:32;24.60;99.90
6843;DHT22;3460;52.028;8.916;2023-08-24T10:16:04;24.70;99.90
6843;DHT22;3460;52.028;8.916;2023-08-24T10:18:31;24.80;99.90
6843;DHT22;3460;52.028;8.916;2023-08-24T10:20:58;24.90;99.90
6843;DHT22;3460;52.028;8.916;2023-08-24T10:23:27;24.90;99.90
6843;DHT22;3460;52.028;8.916;2023-08-24T10:25:56;25.00;99.90
6843;DHT22;3460;52.028;8.916;2023-08-24T10:28:24;25.10;99.90
6843;DHT22;3460;52.028;8.916;2023-08-24T10:30:51;25.10;99.90
6843;DHT22;3460;52.028;8.916;2023-08-24T10:33:21;25.10;99.90
6843;DHT22;3460;52.028;8.916;2023-08-24T10:35:49;25.20;99.90
6843;DHT22;3460;52.028;8.916;2023-08-24T10:38:26;25.20;99.90
6843;DHT22;3460;52.028;8.916;2023-08-24T10:40:53;25.20;99.90
6843;DHT22;3460;52.028;8.916;2023-08-24T10:43:22;25.20;99.90
6843;DHT22;3460;52.028;8.916;2023-08-24T10:45:59;25.30;99.90
6843;DHT22;3460;52.028;8.916;2023-08-24T10:48:29;25.30;99.90
6843;DHT22;3460;52.028;8.916;2023-08-24T10:51:15;25.40;99.90
6843;DHT22;3460;52.028;8.916;2023-08-24T10:53:45;25.40;99.90
6843;DHT22;3460;52.028;8.916;2023-08-24T10:56:13;25.40;99.90
6843;DHT22;3460;52.028;8.916;2023-08-24T10:58:40;25.50;99.90
6843;DHT22;3460;52.028;8.916;2023-08-24T11:01:07;25.60;99.90
6843;DHT22;3460;52.028;8.916;2023-08-24T11:03:41;25.70;99.90
6843;DHT22;3460;52.028;8.916;2023-08-24T11:06:18;25.80;99.90
6843;DHT22;3460;52.028;8.916;2023-08-24T11:08:46;25.70;99.90
6843;DHT22;3460;52.028;8.916;2023-08-24T11:11:20;25.80;99.90
6843;DHT22;3460;52.028;8.916;2023-08-24T11:14:16;25.90;99.90
6843;DHT22;3460;52.028;8.916;2023-08-24T11:16:46;26.00;99.90
6843;DHT22;3460;52.028;8.916;2023-08-24T11:19:15;26.00;99.90
6843;DHT22;3460;52.028;8.916;2023-08-24T11:21:43;26.10;99.90
6843;DHT22;3460;52.028;8.916;2023-08-24T11:24:11;26.10;99.90
6843;DHT22;3460;52.028;8.916;2023-08-24T11:26:42;25.90;99.90
6843;DHT22;3460;52.028;8.916;2023-08-24T11:29:09;25.90;99.90
6843;DHT22;3460;52.028;8.916;2023-08-24T11:31:37;26.10;99.90
6843;DHT22;3460;52.028;8.916;2023-08-24T11:34:04;26.10;99.90
6843;DHT22;3460;52.028;8.916;2023-08-24T11:36:41;26.20;99.90
6843;DHT22;3460;52.028;8.916;2023-08-24T11:39:14;26.20;99.90
6843;DHT22;3460;52.028;8.916;2023-08-24T11:41:42;26.30;99.90
6843;DHT22;3460;52.028;8.916;2023-08-24T11:44:10;26.30;99.90
6843;DHT22;3460;52.028;8.916;2023-08-24T11:46:37;26.30;99.90
6843;DHT22;3460;52.028;8.916;2023-08-24T11:49:05;26.30;99.90
6843;DHT22;3460;52.028;8.916;2023-08-24T11:51:31;26.20;99.90
6843;DHT22;3460;52.028;8.916;2023-08-24T11:54:01;26.30;99.90
6843;DHT22;3460;52.028;8.916;2023-08-24T11:56:29;26.40;99.90
6843;DHT22;3460;52.028;8.916;2023-08-24T11:58:56;26.40;99.90
6843;DHT22;3460;52.028;8.916;2023-08-24T12:01:23;26.40;99.90
6843;DHT22;3460;52.028;8.916;2023-08-24T12:03:52;26.50;99.90
6843;DHT22;3460;52.028;8.916;2023-08-24T12:06:19;26.60;99.90
6843;DHT22;3460;52.028;8.916;2023-08-24T12:08:47;26.70;99.90
6843;DHT22;3460;52.028;8.916;2023-08-24T12:11:16;26.80;99.90
6843;DHT22;3460;52.028;8.916;2023-08-24T12:13:44;26.70;99.90
6843;DHT22;3460;52.028;8.916;2023-08-24T12:16:12;26.70;99.90
6843;DHT22;3460;52.028;8.916;2023-08-24T12:18:50;26.60;99.90
6843;DHT22;3460;52.028;8.916;2023-08-24T12:21:17;26.60;99.90
6843;DHT22;3460;52.028;8.916;2023-08-24T12:23:45;26.60;99.90
6843;DHT22;3460;52.028;8.916;2023-08-24T12:26:19;26.70;99.90
6843;DHT22;3460;52.028;8.916;2023-08-24T12:28:49;26.70;99.90
6843;DHT22;3460;52.028;8.916;2023-08-24T12:31:17;26.60;99.90
6843;DHT22;3460;52.028;8.916;2023-08-24T12:33:44;26.60;99.90
6843;DHT22;3460;52.028;8.916;2023-08-24T12:36:12;26.60;99.90
6843;DHT22;3460;52.028;8.916;2023-08-24T12:38:39;26.70;99.90
6843;DHT22;3460;52.028;8.916;2023-08-24T12:41:08;26.70;99.90
6843;DHT22;3460;52.028;8.916;2023-08-24T12:43:36;26.70;99.90
6843;DHT22;3460;52.028;8.916;2023-08-24T12:46:03;26.70;1.00
6843;DHT22;3460;52.028;8.916;2023-08-24T12:48:29;26.70;99.90
6843;DHT22;3460;52.028;8.916;2023-08-24T12:50:56;26.70;1.00
6843;DHT22;3460;52.028;8.916;2023-08-24T12:53:23;26.80;99.90
6843;DHT22;3460;52.028;8.916;2023-08-24T12:55:50;26.80;99.90
6843;DHT22;3460;52.028;8.916;2023-08-24T12:58:17;26.80;1.00
6843;DHT22;3460;52.028;8.916;2023-08-24T13:00:46;26.90;99.90
6843;DHT22;3460;52.028;8.916;2023-08-24T13:03:14;26.80;99.90
6843;DHT22;3460;52.028;8.916;2023-08-24T13:05:41;26.90;99.90
6843;DHT22;3460;52.028;8.916;2023-08-24T13:08:07;26.80;99.90
6843;DHT22;3460;52.028;8.916;2023-08-24T13:10:35;26.90;99.90
6843;DHT22;3460;52.028;8.916;2023-08-24T13:13:02;27.00;99.90
6843;DHT22;3460;52.028;8.916;2023-08-24T13:15:29;27.00;1.00
6843;DHT22;3460;52.028;8.916;2023-08-24T13:17:57;26.90;99.90
6843;DHT22;3460;52.028;8.916;2023-08-24T13:20:24;26.90;99.90
6843;DHT22;3460;52.028;8.916;2023-08-24T13:22:52;26.80;99.90
6843;DHT22;3460;52.028;8.916;2023-08-24T13:25:19;26.80;99.90
6843;DHT22;3460;52.028;8.916;2023-08-24T13:27:46;26.80;99.90
6843;DHT22;3460;52.028;8.916;2023-08-24T13:30:13;26.90;99.90
6843;DHT22;3460;52.028;8.916;2023-08-24T13:32:40;26.90;99.90
6843;DHT22;3460;52.028;8.916;2023-08-24T13:35:09;27.00;99.90
6843;DHT22;3460;52.028;8.916;2023-08-24T13:37:35;27.00;99.90
6843;DHT22;3460;52.028;8.916;2023-08-24T13:40:03;27.00;99.90
6843;DHT22;3460;52.028;8.916;2023-08-24T13:42:30;27.00;99.90
6843;DHT22;3460;52.028;8.916;2023-08-24T13:44:57;26.90;99.90
6843;DHT22;3460;52.028;8.916;2023-08-24T13:47:24;27.00;99.90
6843;DHT22;3460;52.028;8.916;2023-08-24T13:49:50;26.90;99.90
6843;DHT22;3460;52.028;8.916;2023-08-24T13:52:19;27.00;99.90
6843;DHT22;3460;52.028;8.916;2023-08-24T13:54:45;26.90;99.90
6843;DHT22;3460;52.028;8.916;2023-08-24T13:57:13;26.90;99.90
6843;DHT22;3460;52.028;8.916;2023-08-24T13:59:40;27.00;99.90
6843;DHT22;3460;52.028;8.916;2023-08-24T14:02:06;27.00;99.90
6843;DHT22;3460;52.028;8.916;2023-08-24T14:04:33;27.00;99.90
6843;DHT22;3460;52.028;8.916;2023-08-24T14:07:00;27.00;99.90
6843;DHT22;3460;52.028;8.916;2023-08-24T14:09:28;27.00;99.90
6843;DHT22;3460;52.028;8.916;2023-08-24T14:11:55;27.00;99.90
6843;DHT22;3460;52.028;8.916;2023-08-24T14:14:22;27.00;99.90
6843;DHT22;3460;52.028;8.916;2023-08-24T14:16:54;26.90;99.90
6843;DHT22;3460;52.028;8.916;2023-08-24T14:19:21;26.90;99.90
6843;DHT22;3460;52.028;8.916;2023-08-24T14:21:48;26.90;99.90
6843;DHT22;3460;52.028;8.916;2023-08-24T14:24:14;26.90;99.90
6843;DHT22;3460;52.028;8.916;2023-08-24T14:26:43;26.90;99.90
6843;DHT22;3460;52.028;8.916;2023-08-24T14:29:12;26.90;99.90
6843;DHT22;3460;52.028;8.916;2023-08-24T14:31:38;26.80;99.90
6843;DHT22;3460;52.028;8.916;2023-08-24T14:34:05;26.70;99.90
6843;DHT22;3460;52.028;8.916;2023-08-24T14:36:32;26.70;99.90
6843;DHT22;3460;52.028;8.916;2023-08-24T14:38:59;26.70;99.90
6843;DHT22;3460;52.028;8.916;2023-08-24T14:41:26;26.80;99.90
6843;DHT22;3460;52.028;8.916;2023-08-24T14:43:54;26.70;99.90
6843;DHT22;3460;52.028;8.916;2023-08-24T14:46:21;26.70;99.90
6843;DHT22;3460;52.028;8.916;2023-08-24T14:48:47;26.70;99.90
6843;DHT22;3460;52.028;8.916;2023-08-24T14:51:14;26.70;99.90
6843;DHT22;3460;52.028;8.916;2023-08-24T14:53:41;26.70;99.90
6843;DHT22;3460;52.028;8.916;2023-08-24T14:56:08;26.60;99.90
6843;DHT22;3460;52.028;8.916;2023-08-24T14:58:36;26.50;99.90
6843;DHT22;3460;52.028;8.916;2023-08-24T15:01:04;26.50;99.90
6843;DHT22;3460;52.028;8.916;2023-08-24T15:03:31;26.40;99.90
6843;DHT22;3460;52.028;8.916;2023-08-24T15:05:59;26.40;99.90
6843;DHT22;3460;52.028;8.916;2023-08-24T15:08:30;26.30;99.90
6843;DHT22;3460;52.028;8.916;2023-08-24T15:10:57;26.20;99.90
6843;DHT22;3460;52.028;8.916;2023-08-24T15:13:25;26.20;99.90
6843;DHT22;3460;52.028;8.916;2023-08-24T15:15:53;26.20;99.90
6843;DHT22;3460;52.028;8.916;2023-08-24T15:18:22;26.20;99.90
6843;DHT22;3460;52.028;8.916;2023-08-24T15:20:49;26.00;99.90
6843;DHT22;3460;52.028;8.916;2023-08-24T15:23:23;25.90;99.90
6843;DHT22;3460;52.028;8.916;2023-08-24T15:25:50;25.90;99.90
6843;DHT22;3460;52.028;8.916;2023-08-24T15:28:17;25.90;99.90
6843;DHT22;3460;52.028;8.916;2023-08-24T15:30:44;25.80;99.90
6843;DHT22;3460;52.028;8.916;2023-08-24T15:33:11;25.80;99.90
6843;DHT22;3460;52.028;8.916;2023-08-24T15:35:40;25.70;99.90
6843;DHT22;3460;52.028;8.916;2023-08-24T15:38:08;25.60;99.90
6843;DHT22;3460;52.028;8.916;2023-08-24T15:40:35;25.60;99.90
6843;DHT22;3460;52.028;8.916;2023-08-24T15:43:03;25.50;99.90
6843;DHT22;3460;52.028;8.916;2023-08-24T15:45:31;25.40;99.90
6843;DHT22;3460;52.028;8.916;2023-08-24T15:47:58;25.50;99.90
6843;DHT22;3460;52.028;8.916;2023-08-24T15:50:26;25.50;99.90
6843;DHT22;3460;52.028;8.916;2023-08-24T15:52:54;25.50;99.90
6843;DHT22;3460;52.028;8.916;2023-08-24T15:55:27;25.40;99.90
6843;DHT22;3460;52.028;8.916;2023-08-24T15:57:54;25.40;99.90
6843;DHT22;3460;52.028;8.916;2023-08-24T16:00:21;25.40;99.90
6843;DHT22;3460;52.028;8.916;2023-08-24T16:02:48;25.40;99.90
6843;DHT22;3460;52.028;8.916;2023-08-24T16:05:15;25.50;99.90
6843;DHT22;3460;52.028;8.916;2023-08-24T16:07:41;25.40;99.90